Sadan Bayraktar — TCRB — position and weather

sailwx.info

Track history (hours):
 
Tides and Currents Weather Stations Pressure Air Temp Water Temp Dewpoint Dewpoint Depression Visibility Wind Speed Wind Dir Waves Ship Positions

Sadan Bayraktar

Last reported at 2015-Jan-17 13:33 UTC. Time now 2015-Jan-28 18:20 UTC.
Position N 44°16' E 036°28'.
Warning: this ship's position is 11 days out of date.

Length 116 m; draft 5 m.

Type: Cargo ship. MMSI: 271000653.

Date/timePositionNaut miles runAvg speedWind from/ knotsBaromVisibWave heightAir tempDewpointWater temp
2015-Jan-17 13:33N 44°16' E 036°28'10411.1
2015-Jan-17 04:13N 43°06' E 034°42'2311.9
2015-Jan-17 02:18N 42°51' E 034°19'  
2015-Jan-13 19:14N 40°28' E 026°50'6 0.2
2015-Jan-12 11:12N 40°25' E 026°44'  
2015-Jan-10 04:19N 37°52' E 024°36'1110.8
2015-Jan-10 03:20N 37°42' E 024°32'5411.1
2015-Jan-09 22:31N 36°54' E 024°00'1010.8
2015-Jan-09 21:33N 36°45' E 023°55'1111.1
2015-Jan-09 20:33N 36°38' E 023°44'34611.5
2015-Jan-08 14:20N 37°40' E 016°37'4610.9
2015-Jan-08 10:08N 37°53' E 015°41'  
Track history (hours):
 
Tides and Currents Weather Stations Pressure Air Temp Water Temp Dewpoint Dewpoint Depression Visibility Wind Speed Wind Dir Waves Ship Positions

Sadan Bayraktar

Last reported at 2015-Jan-17 13:33 UTC. Time now 2015-Jan-28 18:20 UTC.
Position N 44°16' E 036°28'.
Warning: this ship's position is 11 days out of date.

Length 116 m; draft 5 m.

Type: Cargo ship. MMSI: 271000653.

Date/timePositionNaut miles runAvg speedWind from/ knotsBaromVisibWave heightAir tempDewpointWater temp
2015-Jan-17 13:33N 44°16' E 036°28'10411.1
2015-Jan-17 04:13N 43°06' E 034°42'2311.9
2015-Jan-17 02:18N 42°51' E 034°19'  
2015-Jan-13 19:14N 40°28' E 026°50'6 0.2
2015-Jan-12 11:12N 40°25' E 026°44'  
2015-Jan-10 04:19N 37°52' E 024°36'1110.8
2015-Jan-10 03:20N 37°42' E 024°32'5411.1
2015-Jan-09 22:31N 36°54' E 024°00'1010.8
2015-Jan-09 21:33N 36°45' E 023°55'1111.1
2015-Jan-09 20:33N 36°38' E 023°44'34611.5
2015-Jan-08 14:20N 37°40' E 016°37'4610.9
2015-Jan-08 10:08N 37°53' E 015°41'  

Dump ship's entire track history